createdAt,value
2023-05-10T00:00:16.282Z,81.80
2023-05-10T00:03:06.049Z,81.89
2023-05-10T00:05:34.208Z,81.02
2023-05-10T00:08:02.290Z,81.84
2023-05-10T00:10:30.380Z,82.51
2023-05-10T00:12:58.476Z,82.85
2023-05-10T00:15:26.610Z,82.51
2023-05-10T00:17:54.770Z,82.37
2023-05-10T00:20:22.889Z,81.36
2023-05-10T00:22:50.900Z,82.88
2023-05-10T00:25:18.965Z,83.01
2023-05-10T00:27:47.056Z,84.02
2023-05-10T00:30:15.386Z,82.46
2023-05-10T00:32:44.668Z,82.07
2023-05-10T00:35:12.774Z,84.08
2023-05-10T00:37:41.403Z,84.02
2023-05-10T00:40:09.763Z,82.80
2023-05-10T00:42:37.867Z,83.76
2023-05-10T00:45:06.442Z,84.16
2023-05-10T00:47:35.201Z,82.37
2023-05-10T00:50:03.964Z,82.66
2023-05-10T00:52:32.187Z,84.05
2023-05-10T00:55:01.238Z,83.98
2023-05-10T00:57:29.647Z,84.19
2023-05-10T00:59:58.141Z,84.24
2023-05-10T01:02:26.526Z,83.64
2023-05-10T01:04:55.418Z,83.95
2023-05-10T01:07:23.535Z,83.45
2023-05-10T01:09:51.746Z,82.69
2023-05-10T01:12:19.966Z,81.34
2023-05-10T01:14:48.380Z,83.24
2023-05-10T01:17:17.475Z,83.66
2023-05-10T01:19:45.641Z,82.93
2023-05-10T01:22:41.711Z,84.35
2023-05-10T01:25:21.034Z,84.23
2023-05-10T01:27:49.071Z,84.28
2023-05-10T01:30:29.567Z,84.21
2023-05-10T01:33:16.573Z,84.83
2023-05-10T01:35:56.653Z,84.58
2023-05-10T01:38:30.800Z,84.62
2023-05-10T01:40:59.882Z,84.91
2023-05-10T01:43:32.308Z,85.63
2023-05-10T01:46:05.767Z,85.04
2023-05-10T01:48:34.753Z,84.36
2023-05-10T01:51:03.123Z,84.03
2023-05-10T01:53:32.721Z,84.91
2023-05-10T01:56:01.893Z,84.47
2023-05-10T01:58:32.690Z,84.67
2023-05-10T02:01:02.603Z,84.82
2023-05-10T02:03:32.306Z,84.96
2023-05-10T02:06:00.906Z,85.11
2023-05-10T02:08:29.453Z,85.48
2023-05-10T02:10:59.822Z,84.25
2023-05-10T02:13:30.925Z,85.41
2023-05-10T02:16:00.044Z,84.09
2023-05-10T02:18:28.768Z,85.41
2023-05-10T02:20:57.654Z,85.76
2023-05-10T02:23:26.838Z,84.96
2023-05-10T02:25:56.146Z,85.76
2023-05-10T02:28:27.985Z,86.10
2023-05-10T02:30:57.375Z,85.79
2023-05-10T02:33:26.799Z,85.65
2023-05-10T02:35:55.980Z,86.68
2023-05-10T02:38:25.492Z,86.34
2023-05-10T02:40:53.920Z,86.96
2023-05-10T02:43:24.332Z,86.95
2023-05-10T02:45:52.710Z,87.57
2023-05-10T02:48:20.783Z,86.97
2023-05-10T02:50:52.509Z,86.33
2023-05-10T02:53:23.348Z,86.28
2023-05-10T02:55:52.949Z,86.78
2023-05-10T02:58:21.917Z,87.35
2023-05-10T03:00:49.970Z,87.99
2023-05-10T03:03:18.005Z,88.06
2023-05-10T03:05:46.208Z,88.31
2023-05-10T03:08:14.358Z,87.62
2023-05-10T03:11:00.941Z,87.20
2023-05-10T03:13:55.486Z,86.72
2023-05-10T03:16:28.537Z,86.83
2023-05-10T03:19:23.040Z,86.90
2023-05-10T03:21:53.781Z,87.47
2023-05-10T03:24:23.413Z,87.74
2023-05-10T03:26:51.917Z,87.40
2023-05-10T03:29:21.351Z,87.10
2023-05-10T03:31:49.544Z,87.05
2023-05-10T03:34:18.511Z,87.43
2023-05-10T03:36:46.480Z,87.53
2023-05-10T03:39:14.578Z,87.71
2023-05-10T03:41:42.710Z,87.57
2023-05-10T03:44:10.990Z,87.90
2023-05-10T03:46:39.103Z,88.91
2023-05-10T03:49:07.510Z,88.11
2023-05-10T03:51:35.665Z,87.19
2023-05-10T03:54:03.964Z,87.71
2023-05-10T03:56:32.203Z,87.69
2023-05-10T03:59:00.659Z,87.62
2023-05-10T04:01:28.750Z,87.54
2023-05-10T04:03:57.092Z,87.33
2023-05-10T04:06:25.301Z,87.68
2023-05-10T04:08:54.059Z,87.63
2023-05-10T04:11:23.059Z,86.64
2023-05-10T04:13:51.263Z,88.93
2023-05-10T04:16:19.504Z,89.11
2023-05-10T04:18:47.659Z,86.08
2023-05-10T04:21:15.886Z,84.90
2023-05-10T04:23:44.123Z,85.28
2023-05-10T04:26:12.474Z,84.15
2023-05-10T04:28:40.633Z,82.53
2023-05-10T04:31:10.152Z,82.14
2023-05-10T04:33:38.396Z,81.26
2023-05-10T04:36:06.823Z,80.63
2023-05-10T04:38:34.882Z,79.32
2023-05-10T04:41:07.375Z,79.47
2023-05-10T04:43:35.712Z,79.75
2023-05-10T04:46:04.009Z,79.92
2023-05-10T04:48:32.268Z,80.22
2023-05-10T04:51:00.470Z,80.56
2023-05-10T04:53:28.648Z,80.89
2023-05-10T04:55:56.661Z,80.75
2023-05-10T04:58:24.965Z,81.05
2023-05-10T05:00:53.118Z,80.77
2023-05-10T05:03:24.558Z,80.65
2023-05-10T05:05:52.815Z,80.96
2023-05-10T05:08:20.874Z,82.29
2023-05-10T05:10:51.244Z,82.65
2023-05-10T05:13:19.766Z,79.53
2023-05-10T05:15:48.044Z,80.29
2023-05-10T05:18:16.211Z,77.30
2023-05-10T05:20:44.204Z,77.60
2023-05-10T05:23:12.254Z,71.09
2023-05-10T05:25:40.274Z,72.23
2023-05-10T05:28:08.713Z,71.99
2023-05-10T05:30:36.710Z,61.88
2023-05-10T05:33:05.225Z,66.10
2023-05-10T05:35:33.424Z,68.67
2023-05-10T05:38:01.501Z,61.47
2023-05-10T05:40:29.538Z,57.53
2023-05-10T05:42:57.553Z,67.72
2023-05-10T05:45:25.675Z,59.76
2023-05-10T05:47:53.870Z,57.45
2023-05-10T05:50:21.980Z,59.78
2023-05-10T05:52:50.073Z,57.31
2023-05-10T05:55:18.784Z,55.07
2023-05-10T05:57:46.946Z,47.86
2023-05-10T06:00:15.239Z,51.37
2023-05-10T06:02:43.370Z,55.48
2023-05-10T06:05:11.541Z,50.99
2023-05-10T06:07:40.825Z,48.08
2023-05-10T06:10:09.624Z,47.39
2023-05-10T06:12:37.715Z,49.61
2023-05-10T06:15:06.183Z,45.17
2023-05-10T06:17:34.197Z,44.76
2023-05-10T06:20:02.491Z,46.92
2023-05-10T06:22:30.732Z,46.66
2023-05-10T06:24:58.861Z,46.48
2023-05-10T06:27:27.141Z,48.01
2023-05-10T06:30:01.999Z,49.23
2023-05-10T06:32:37.605Z,48.33
2023-05-10T06:35:06.087Z,49.41
2023-05-10T06:37:34.353Z,49.63
2023-05-10T06:40:03.427Z,48.92
2023-05-10T06:42:31.485Z,50.52
2023-05-10T06:44:59.599Z,49.39
2023-05-10T06:47:27.695Z,49.31
2023-05-10T06:49:56.937Z,50.44
2023-05-10T06:52:24.999Z,49.82
2023-05-10T06:54:53.115Z,50.15
2023-05-10T06:57:31.305Z,50.35
2023-05-10T07:00:00.311Z,50.17
2023-05-10T07:02:28.648Z,51.31
2023-05-10T07:04:58.426Z,53.08
2023-05-10T07:07:28.301Z,51.22
2023-05-10T07:09:57.634Z,51.81
2023-05-10T07:12:25.948Z,51.80
2023-05-10T07:14:53.948Z,50.33
2023-05-10T07:17:22.084Z,50.39
2023-05-10T07:19:50.215Z,49.86
2023-05-10T07:22:18.334Z,49.61
2023-05-10T07:24:46.608Z,50.01
2023-05-10T07:27:14.819Z,49.10
2023-05-10T07:29:43.289Z,48.32
2023-05-10T07:32:11.498Z,48.59
2023-05-10T07:34:39.617Z,49.24
2023-05-10T07:37:08.501Z,48.96
2023-05-10T07:39:36.514Z,48.58
2023-05-10T07:42:04.577Z,48.98
2023-05-10T07:44:32.641Z,47.77
2023-05-10T07:47:00.708Z,47.77
2023-05-10T07:49:28.711Z,48.52
2023-05-10T07:51:56.864Z,48.63
2023-05-10T07:54:25.076Z,49.20
2023-05-10T07:56:53.266Z,48.90
2023-05-10T07:59:21.974Z,48.14
2023-05-10T08:01:50.055Z,48.19
2023-05-10T08:04:18.358Z,47.94
2023-05-10T08:06:46.477Z,48.41
2023-05-10T08:09:14.708Z,47.98
2023-05-10T08:11:42.832Z,46.91
2023-05-10T08:14:11.010Z,46.54
2023-05-10T08:16:39.231Z,47.44
2023-05-10T08:19:07.565Z,46.15
2023-05-10T08:21:35.816Z,45.50
2023-05-10T08:24:03.981Z,45.64
2023-05-10T08:26:32.039Z,46.71
2023-05-10T08:29:00.433Z,45.22
2023-05-10T08:31:28.566Z,44.98
2023-05-10T08:33:56.712Z,45.22
2023-05-10T08:36:25.529Z,44.04
2023-05-10T08:38:53.997Z,45.09
2023-05-10T08:41:22.861Z,46.64
2023-05-10T08:43:51.738Z,45.91
2023-05-10T08:46:20.533Z,46.23
2023-05-10T08:48:49.407Z,45.80
2023-05-10T08:51:22.312Z,45.55
2023-05-10T08:53:50.603Z,45.17
2023-05-10T08:56:18.988Z,45.34
2023-05-10T08:58:47.063Z,45.90
2023-05-10T09:01:16.982Z,44.31
2023-05-10T09:03:47.161Z,46.53
2023-05-10T09:06:15.608Z,46.76
2023-05-10T09:08:44.038Z,47.05
2023-05-10T09:11:13.033Z,47.15
2023-05-10T09:13:41.324Z,47.33
2023-05-10T09:16:20.398Z,46.22
2023-05-10T09:18:50.834Z,47.68
2023-05-10T09:21:20.525Z,46.51
2023-05-10T09:23:51.324Z,47.92
2023-05-10T09:26:23.423Z,48.01
2023-05-10T09:28:52.480Z,47.07
2023-05-10T09:31:20.934Z,43.58
2023-05-10T09:33:49.896Z,45.84
2023-05-10T09:36:18.174Z,43.66
2023-05-10T09:38:50.132Z,43.41
2023-05-10T09:41:22.279Z,42.03
2023-05-10T09:43:50.607Z,40.34
2023-05-10T09:46:18.924Z,41.59
2023-05-10T09:48:48.669Z,40.41
2023-05-10T09:51:23.444Z,40.89
2023-05-10T09:54:10.264Z,39.63
2023-05-10T09:56:40.821Z,41.29
2023-05-10T09:59:10.775Z,39.27
2023-05-10T10:01:39.189Z,39.54
2023-05-10T10:04:08.475Z,40.12
2023-05-10T10:06:39.917Z,40.58
2023-05-10T10:09:08.292Z,41.37
2023-05-10T10:11:37.531Z,40.41
2023-05-10T10:14:06.258Z,41.59
2023-05-10T10:16:34.529Z,41.93
2023-05-10T10:19:02.982Z,42.34
2023-05-10T10:21:32.148Z,41.33
2023-05-10T10:24:00.218Z,42.73
2023-05-10T10:26:28.387Z,43.94
2023-05-10T10:29:14.831Z,44.13
2023-05-10T10:31:47.386Z,45.48
2023-05-10T10:34:26.844Z,45.24
2023-05-10T10:36:55.610Z,42.82
2023-05-10T10:39:24.154Z,43.71
2023-05-10T10:41:52.391Z,44.03
2023-05-10T10:44:26.282Z,43.25
2023-05-10T10:47:03.723Z,43.47
2023-05-10T10:49:33.298Z,42.85
2023-05-10T10:52:17.161Z,43.66
2023-05-10T10:54:50.993Z,43.50
2023-05-10T10:57:19.644Z,44.14
2023-05-10T10:59:47.741Z,44.91
2023-05-10T11:02:35.257Z,44.13
2023-05-10T11:05:22.449Z,43.65
2023-05-10T11:07:55.162Z,43.15
2023-05-10T11:10:24.016Z,42.44
2023-05-10T11:13:11.243Z,41.23
2023-05-10T11:15:40.385Z,42.24
2023-05-10T11:18:22.469Z,42.35
2023-05-10T11:20:56.752Z,40.16
2023-05-10T11:23:24.858Z,40.44
2023-05-10T11:25:53.042Z,41.31
2023-05-10T11:28:21.839Z,41.91
2023-05-10T11:30:49.919Z,40.11
2023-05-10T11:33:18.534Z,39.08
2023-05-10T11:35:46.744Z,38.79
2023-05-10T11:38:15.325Z,38.49
2023-05-10T11:40:43.751Z,38.84
2023-05-10T11:43:12.396Z,38.75
2023-05-10T11:45:43.584Z,37.27
2023-05-10T11:48:11.720Z,38.56
2023-05-10T11:50:39.838Z,39.48
2023-05-10T11:53:08.542Z,39.97
2023-05-10T11:55:36.673Z,36.64
2023-05-10T11:58:04.864Z,36.11
2023-05-10T12:00:32.981Z,38.46
2023-05-10T12:03:01.912Z,37.23
2023-05-10T12:05:32.702Z,37.42
2023-05-10T12:08:16.694Z,37.51
2023-05-10T12:10:44.727Z,37.28
2023-05-10T12:13:14.957Z,37.86
2023-05-10T12:15:43.665Z,35.94
2023-05-10T12:18:12.864Z,35.30
2023-05-10T12:20:41.666Z,34.26
2023-05-10T12:23:11.161Z,33.24
2023-05-10T12:25:40.131Z,33.93
2023-05-10T12:28:09.530Z,33.33
2023-05-10T12:30:37.881Z,34.94
2023-05-10T12:33:09.984Z,33.37
2023-05-10T12:35:48.326Z,33.32
2023-05-10T12:38:35.535Z,34.68
2023-05-10T12:41:04.899Z,35.53
2023-05-10T12:43:33.192Z,33.57
2023-05-10T12:46:11.272Z,34.98
2023-05-10T12:48:40.115Z,35.37
2023-05-10T12:51:12.943Z,33.93
2023-05-10T12:53:43.694Z,35.55
2023-05-10T12:56:12.777Z,33.51
2023-05-10T12:58:40.827Z,36.15
2023-05-10T13:01:09.569Z,35.52
2023-05-10T13:03:37.784Z,35.59
2023-05-10T13:06:06.623Z,35.47
2023-05-10T13:08:34.878Z,34.59
2023-05-10T13:11:03.339Z,35.10
2023-05-10T13:13:31.381Z,36.01
2023-05-10T13:15:59.609Z,36.02
2023-05-10T13:18:27.948Z,36.69
2023-05-10T13:20:56.885Z,36.36
2023-05-10T13:23:24.997Z,36.57
2023-05-10T13:25:53.176Z,36.56
2023-05-10T13:28:21.476Z,37.48
2023-05-10T13:30:49.732Z,36.26
2023-05-10T13:33:17.816Z,36.93
2023-05-10T13:35:46.253Z,37.89
2023-05-10T13:38:14.954Z,37.55
2023-05-10T13:40:43.099Z,36.42
2023-05-10T13:43:11.309Z,36.47
2023-05-10T13:45:40.132Z,34.55
2023-05-10T13:48:08.273Z,34.97
2023-05-10T13:50:36.552Z,36.06
2023-05-10T13:53:04.627Z,35.18
2023-05-10T13:55:32.809Z,35.59
2023-05-10T13:58:01.257Z,35.84
2023-05-10T14:00:29.294Z,36.96
2023-05-10T14:02:57.613Z,36.85
2023-05-10T14:05:26.530Z,37.89
2023-05-10T14:07:54.925Z,37.28
2023-05-10T14:10:23.100Z,35.93
2023-05-10T14:12:52.394Z,35.98
2023-05-10T14:15:20.566Z,36.80
2023-05-10T14:17:49.105Z,35.55
2023-05-10T14:20:17.386Z,36.13
2023-05-10T14:22:45.635Z,37.12
2023-05-10T14:25:14.487Z,37.21
2023-05-10T14:27:42.494Z,36.53
2023-05-10T14:30:10.833Z,37.26
2023-05-10T14:32:38.944Z,37.35
2023-05-10T14:35:07.418Z,36.83
2023-05-10T14:37:35.647Z,37.99
2023-05-10T14:40:05.558Z,39.13
2023-05-10T14:42:33.814Z,38.95
2023-05-10T14:45:01.877Z,39.15
2023-05-10T14:47:30.168Z,38.25
2023-05-10T14:49:58.290Z,39.27
2023-05-10T14:52:26.884Z,39.85
2023-05-10T14:54:54.983Z,39.98
2023-05-10T14:57:23.020Z,39.34
2023-05-10T14:59:51.293Z,38.93
2023-05-10T15:02:19.819Z,37.69
2023-05-10T15:04:48.286Z,38.28
2023-05-10T15:07:18.467Z,38.54
2023-05-10T15:09:46.587Z,37.90
2023-05-10T15:12:14.787Z,36.99
2023-05-10T15:14:42.898Z,38.74
2023-05-10T15:17:11.545Z,40.77
2023-05-10T15:19:39.633Z,40.72
2023-05-10T15:22:07.703Z,39.33
2023-05-10T15:24:35.813Z,39.60
2023-05-10T15:27:03.973Z,41.02
2023-05-10T15:29:32.618Z,41.56
2023-05-10T15:32:02.678Z,41.29
2023-05-10T15:34:32.253Z,41.38
2023-05-10T15:37:01.794Z,41.85
2023-05-10T15:39:29.784Z,42.13
2023-05-10T15:41:57.846Z,42.74
2023-05-10T15:44:26.023Z,42.91
2023-05-10T15:46:54.302Z,42.95
2023-05-10T15:49:22.499Z,43.91
2023-05-10T15:51:50.557Z,44.24
2023-05-10T15:54:18.681Z,43.92
2023-05-10T15:56:46.841Z,44.92
2023-05-10T15:59:14.968Z,44.49
2023-05-10T16:01:43.165Z,44.36
2023-05-10T16:04:11.247Z,43.54
2023-05-10T16:06:39.797Z,43.50
2023-05-10T16:09:07.827Z,44.18
2023-05-10T16:11:36.023Z,44.57
2023-05-10T16:14:05.288Z,44.05
2023-05-10T16:16:35.126Z,44.11
2023-05-10T16:19:04.180Z,45.18
2023-05-10T16:21:32.844Z,45.32
2023-05-10T16:24:01.234Z,45.11
2023-05-10T16:26:29.459Z,45.72
2023-05-10T16:28:57.552Z,46.23
2023-05-10T16:31:25.808Z,45.73
2023-05-10T16:33:54.055Z,46.16
2023-05-10T16:36:22.105Z,46.53
2023-05-10T16:38:50.178Z,47.26
2023-05-10T16:41:18.230Z,48.42
2023-05-10T16:43:46.327Z,47.82
2023-05-10T16:46:14.534Z,48.40
2023-05-10T16:48:42.712Z,48.68
2023-05-10T16:51:10.802Z,50.30
2023-05-10T16:53:38.853Z,49.69
2023-05-10T16:56:07.065Z,50.10
2023-05-10T16:58:35.258Z,50.63
2023-05-10T17:01:03.588Z,50.91
2023-05-10T17:03:31.781Z,50.94
2023-05-10T17:05:59.864Z,50.62
2023-05-10T17:08:27.994Z,50.63
2023-05-10T17:10:56.509Z,51.81
2023-05-10T17:13:24.650Z,50.79
2023-05-10T17:15:53.014Z,51.15
2023-05-10T17:18:21.185Z,52.12
2023-05-10T17:20:49.443Z,51.72
2023-05-10T17:23:17.562Z,52.63
2023-05-10T17:25:45.766Z,52.58
2023-05-10T17:28:13.879Z,53.59
2023-05-10T17:30:42.050Z,53.98
2023-05-10T17:33:10.097Z,53.91
2023-05-10T17:35:38.236Z,54.18
2023-05-10T17:38:06.358Z,55.78
2023-05-10T17:40:34.387Z,54.76
2023-05-10T17:43:02.456Z,53.75
2023-05-10T17:45:30.635Z,55.10
2023-05-10T17:47:58.812Z,54.33
2023-05-10T17:50:27.043Z,55.73
2023-05-10T17:52:55.270Z,55.65
2023-05-10T17:55:23.306Z,58.17
2023-05-10T17:57:52.063Z,56.47
2023-05-10T18:00:20.465Z,57.73
2023-05-10T18:02:48.488Z,57.45
2023-05-10T18:05:16.966Z,58.70
2023-05-10T18:07:45.533Z,58.09
2023-05-10T18:10:13.722Z,57.68
2023-05-10T18:12:41.924Z,59.35
2023-05-10T18:15:10.440Z,58.24
2023-05-10T18:17:38.635Z,57.97
2023-05-10T18:20:07.547Z,58.09
2023-05-10T18:22:36.113Z,57.51
2023-05-10T18:25:04.698Z,58.04
2023-05-10T18:27:32.890Z,60.05
2023-05-10T18:30:00.975Z,57.52
2023-05-10T18:32:29.189Z,59.66
2023-05-10T18:34:57.871Z,60.23
2023-05-10T18:37:25.970Z,60.62
2023-05-10T18:39:54.099Z,63.17
2023-05-10T18:42:22.316Z,62.05
2023-05-10T18:44:50.490Z,60.12
2023-05-10T18:47:18.732Z,59.54
2023-05-10T18:49:46.962Z,61.18
2023-05-10T18:52:16.206Z,58.84
2023-05-10T18:54:44.308Z,61.91
2023-05-10T18:57:12.761Z,58.91
2023-05-10T18:59:40.920Z,59.06
2023-05-10T19:02:09.085Z,57.82
2023-05-10T19:04:37.274Z,57.75
2023-05-10T19:07:05.394Z,59.59
2023-05-10T19:09:33.562Z,59.21
2023-05-10T19:12:01.652Z,59.88
2023-05-10T19:14:29.844Z,60.77
2023-05-10T19:16:59.131Z,63.59
2023-05-10T19:19:27.787Z,62.66
2023-05-10T19:21:56.463Z,60.23
2023-05-10T19:24:25.887Z,59.45
2023-05-10T19:26:55.880Z,60.25
2023-05-10T19:29:25.754Z,64.13
2023-05-10T19:31:54.824Z,65.42
2023-05-10T19:34:23.197Z,66.17
2023-05-10T19:36:51.520Z,66.37
2023-05-10T19:39:19.685Z,65.29
2023-05-10T19:41:49.867Z,65.26
2023-05-10T19:44:18.268Z,64.14
2023-05-10T19:46:46.310Z,66.16
2023-05-10T19:49:14.539Z,62.63
2023-05-10T19:51:42.745Z,66.33
2023-05-10T19:54:10.913Z,64.82
2023-05-10T19:56:38.979Z,66.66
2023-05-10T19:59:07.942Z,65.59
2023-05-10T20:01:36.328Z,63.78
2023-05-10T20:04:04.542Z,63.02
2023-05-10T20:06:33.128Z,66.51
2023-05-10T20:09:01.177Z,67.21
2023-05-10T20:11:29.278Z,70.65
2023-05-10T20:13:57.336Z,71.17
2023-05-10T20:16:26.876Z,68.37
2023-05-10T20:18:55.180Z,67.68
2023-05-10T20:21:24.129Z,69.46
2023-05-10T20:23:52.485Z,70.20
2023-05-10T20:26:21.757Z,69.83
2023-05-10T20:28:50.965Z,69.08
2023-05-10T20:31:19.031Z,68.48
2023-05-10T20:33:47.173Z,69.85
2023-05-10T20:36:15.229Z,70.96
2023-05-10T20:38:43.290Z,70.28
2023-05-10T20:41:11.381Z,72.66
2023-05-10T20:43:39.408Z,70.53
2023-05-10T20:46:07.953Z,72.59
2023-05-10T20:48:36.116Z,73.34
2023-05-10T20:51:04.213Z,70.68
2023-05-10T20:53:32.323Z,71.89
2023-05-10T20:56:00.352Z,73.74
2023-05-10T20:58:28.372Z,72.39
2023-05-10T21:00:56.401Z,75.43
2023-05-10T21:03:24.519Z,75.73
2023-05-10T21:05:52.700Z,75.80
2023-05-10T21:08:20.875Z,74.93
2023-05-10T21:10:48.971Z,74.60
2023-05-10T21:13:17.261Z,71.66
2023-05-10T21:15:45.486Z,71.23
2023-05-10T21:18:13.645Z,71.19
2023-05-10T21:20:41.841Z,67.85
2023-05-10T21:23:09.937Z,68.56
2023-05-10T21:25:37.994Z,72.03
2023-05-10T21:28:06.332Z,68.63
2023-05-10T21:30:34.606Z,68.80
2023-05-10T21:33:03.730Z,68.61
2023-05-10T21:35:32.013Z,73.54
2023-05-10T21:37:59.979Z,69.26
2023-05-10T21:40:28.791Z,71.30
2023-05-10T21:42:57.003Z,71.86
2023-05-10T21:45:25.106Z,69.11
2023-05-10T21:47:53.275Z,69.17
2023-05-10T21:50:21.537Z,69.67
2023-05-10T21:52:49.626Z,74.77
2023-05-10T21:55:18.368Z,75.98
2023-05-10T21:57:46.841Z,72.50
2023-05-10T22:00:16.563Z,73.78
2023-05-10T22:02:45.146Z,72.50
2023-05-10T22:05:13.281Z,70.82
2023-05-10T22:07:41.381Z,70.29
2023-05-10T22:10:09.809Z,73.32
2023-05-10T22:12:38.030Z,72.79
2023-05-10T22:15:10.489Z,72.55
2023-05-10T22:17:40.068Z,73.23
2023-05-10T22:20:08.710Z,70.99
2023-05-10T22:22:36.951Z,70.05
2023-05-10T22:25:06.299Z,71.56
2023-05-10T22:27:34.459Z,71.00
2023-05-10T22:30:03.244Z,70.55
2023-05-10T22:32:31.877Z,73.21
2023-05-10T22:35:00.169Z,71.59
2023-05-10T22:37:28.246Z,71.47
2023-05-10T22:39:56.514Z,69.28
2023-05-10T22:42:24.581Z,69.36
2023-05-10T22:44:52.642Z,71.94
2023-05-10T22:47:20.737Z,73.09
2023-05-10T22:49:49.121Z,71.07
2023-05-10T22:52:17.195Z,74.81
2023-05-10T22:54:45.244Z,76.74
2023-05-10T22:57:13.427Z,74.04
2023-05-10T22:59:42.481Z,74.94
2023-05-10T23:02:10.846Z,75.64
2023-05-10T23:04:39.027Z,74.40
2023-05-10T23:07:07.257Z,74.73
2023-05-10T23:09:35.262Z,76.41
2023-05-10T23:12:03.367Z,77.18
2023-05-10T23:14:31.402Z,77.09
2023-05-10T23:16:59.491Z,75.86
2023-05-10T23:19:27.612Z,77.08
2023-05-10T23:21:55.734Z,76.20
2023-05-10T23:24:23.787Z,74.02
2023-05-10T23:26:52.058Z,72.47
2023-05-10T23:29:20.280Z,74.08
2023-05-10T23:31:49.250Z,71.50
2023-05-10T23:34:17.671Z,69.99
2023-05-10T23:36:45.786Z,70.42
2023-05-10T23:39:13.827Z,70.66
2023-05-10T23:41:42.787Z,71.84
2023-05-10T23:44:10.903Z,71.08
2023-05-10T23:46:39.018Z,69.45
2023-05-10T23:49:07.186Z,69.96
2023-05-10T23:51:35.278Z,69.26
2023-05-10T23:54:03.564Z,69.52
2023-05-10T23:56:31.702Z,72.47
2023-05-10T23:58:59.833Z,74.31
